createdAt,value
2019-05-05T00:05:54.796Z,5.84
2019-05-05T00:12:10.130Z,5.75
2019-05-05T00:18:17.815Z,5.67
2019-05-05T00:24:24.394Z,5.44
2019-05-05T00:30:30.394Z,5.09
2019-05-05T00:36:36.318Z,4.85
2019-05-05T00:42:42.175Z,4.70
2019-05-05T00:48:48.640Z,4.50
2019-05-05T00:54:55.566Z,4.51
2019-05-05T01:01:14.396Z,4.52
2019-05-05T01:07:21.120Z,4.42
2019-05-05T01:13:26.936Z,4.25
2019-05-05T01:19:34.852Z,4.11
2019-05-05T01:25:40.171Z,4.06
2019-05-05T01:31:46.216Z,3.89
2019-05-05T01:37:58.064Z,3.80
2019-05-05T01:44:04.994Z,3.69
2019-05-05T01:50:18.314Z,3.67
2019-05-05T01:56:19.708Z,3.74
2019-05-05T02:02:25.712Z,3.82
2019-05-05T02:08:31.461Z,3.91
2019-05-05T02:14:37.587Z,3.74
2019-05-05T02:21:05.230Z,3.65
2019-05-05T02:27:11.066Z,3.73
2019-05-05T02:33:18.532Z,3.83
2019-05-05T02:39:24.287Z,3.91
2019-05-05T02:45:56.263Z,3.97
2019-05-05T02:52:04.850Z,4.00
2019-05-05T02:58:10.451Z,4.01
2019-05-05T03:04:17.092Z,4.09
2019-05-05T03:10:24.574Z,4.24
2019-05-05T03:16:36.315Z,4.30
2019-05-05T03:22:43.452Z,4.19
2019-05-05T03:28:54.723Z,4.17
2019-05-05T03:35:00.757Z,4.24
2019-05-05T03:41:09.574Z,4.42
2019-05-05T03:47:15.760Z,4.70
2019-05-05T03:53:24.418Z,4.63
2019-05-05T03:59:29.662Z,4.47
2019-05-05T04:05:57.522Z,4.68
2019-05-05T04:12:04.406Z,4.88
2019-05-05T04:18:18.194Z,4.80
2019-05-05T04:24:23.957Z,4.84
2019-05-05T04:30:29.681Z,4.93
2019-05-05T04:36:35.887Z,5.04
2019-05-05T04:42:44.129Z,5.24
2019-05-05T04:48:58.507Z,5.45
2019-05-05T04:55:04.430Z,5.27
2019-05-05T05:01:10.370Z,5.31
2019-05-05T05:07:16.919Z,5.32
2019-05-05T05:13:24.451Z,5.37
2019-05-05T05:19:30.222Z,5.67
2019-05-05T05:25:36.034Z,6.03
2019-05-05T05:31:41.864Z,6.28
2019-05-05T05:37:49.312Z,6.43
2019-05-05T05:44:20.000Z,6.55
2019-05-05T05:50:38.781Z,6.64
2019-05-05T05:56:44.798Z,6.74
2019-05-05T06:02:51.311Z,6.81
2019-05-05T06:08:57.217Z,6.92
2019-05-05T06:15:03.861Z,6.99
2019-05-05T06:21:10.106Z,7.09
2019-05-05T06:27:15.843Z,7.36
2019-05-05T06:33:21.664Z,7.57
2019-05-05T06:39:27.493Z,7.67
2019-05-05T06:45:44.761Z,7.52
2019-05-05T06:51:50.575Z,7.67
2019-05-05T06:57:56.360Z,7.71
2019-05-05T07:04:03.461Z,7.98
2019-05-05T07:10:10.336Z,8.03
2019-05-05T07:16:16.238Z,8.14
2019-05-05T07:22:24.050Z,8.33
2019-05-05T07:28:30.035Z,8.19
2019-05-05T07:34:54.612Z,8.29
2019-05-05T07:41:01.049Z,8.40
2019-05-05T07:47:06.783Z,8.46
2019-05-05T07:53:17.514Z,8.51
2019-05-05T07:59:20.272Z,8.40
2019-05-05T08:05:26.513Z,8.75
2019-05-05T08:11:34.302Z,9.17
2019-05-05T08:17:57.924Z,9.27
2019-05-05T08:24:15.600Z,9.28
2019-05-05T08:30:44.117Z,9.19
2019-05-05T08:36:50.040Z,9.26
2019-05-05T08:42:55.988Z,9.66
2019-05-05T08:49:01.927Z,10.00
2019-05-05T08:55:09.780Z,10.08
2019-05-05T09:01:18.869Z,10.39
2019-05-05T09:07:24.609Z,10.81
2019-05-05T09:13:30.463Z,10.92
2019-05-05T09:19:37.332Z,11.28
2019-05-05T09:25:50.566Z,10.83
2019-05-05T09:31:56.407Z,10.11
2019-05-05T09:38:04.015Z,9.49
2019-05-05T09:44:09.890Z,9.79
2019-05-05T09:50:15.766Z,9.81
2019-05-05T09:56:23.623Z,10.12
2019-05-05T10:02:29.275Z,10.30
2019-05-05T10:08:35.171Z,10.20
2019-05-05T10:14:40.989Z,10.42
2019-05-05T10:20:46.848Z,10.92
2019-05-05T10:26:54.312Z,11.36
2019-05-05T10:33:00.346Z,11.62
2019-05-05T10:39:12.884Z,11.24
2019-05-05T10:45:19.857Z,11.27
2019-05-05T10:51:25.881Z,11.42
2019-05-05T10:57:31.669Z,12.01
2019-05-05T11:03:37.461Z,12.11
2019-05-05T11:09:44.374Z,12.04
2019-05-05T11:15:50.351Z,12.36
2019-05-05T11:21:56.374Z,12.62
2019-05-05T11:28:03.780Z,12.34
2019-05-05T11:34:15.067Z,12.60
2019-05-05T11:40:39.947Z,12.64
2019-05-05T11:46:45.737Z,12.40
2019-05-05T11:52:51.559Z,11.41
2019-05-05T11:58:58.089Z,11.22
2019-05-05T12:05:05.818Z,10.97
2019-05-05T12:11:14.856Z,11.17
2019-05-05T12:17:35.940Z,11.25
2019-05-05T12:23:44.216Z,11.45
2019-05-05T12:29:54.553Z,11.72
2019-05-05T12:36:01.287Z,11.47
2019-05-05T12:42:07.148Z,11.61
2019-05-05T12:48:18.175Z,12.06
2019-05-05T12:54:24.620Z,12.36
2019-05-05T13:00:30.640Z,12.93
2019-05-05T13:06:37.609Z,13.11
2019-05-05T13:12:43.754Z,12.58
2019-05-05T13:18:49.694Z,12.32
2019-05-05T13:25:13.854Z,12.44
2019-05-05T13:31:21.782Z,12.66
2019-05-05T13:37:27.433Z,12.97
2019-05-05T13:43:34.256Z,13.08
2019-05-05T13:49:43.595Z,13.28
2019-05-05T13:55:49.271Z,13.22
2019-05-05T14:01:55.298Z,13.65
2019-05-05T14:08:01.152Z,13.16
2019-05-05T14:14:06.897Z,13.48
2019-05-05T14:20:14.803Z,13.42
2019-05-05T14:26:25.725Z,13.70
2019-05-05T14:32:32.065Z,13.82
2019-05-05T14:38:49.432Z,14.10
2019-05-05T14:44:55.199Z,14.12
2019-05-05T14:51:01.011Z,13.86
2019-05-05T14:57:06.772Z,14.09
2019-05-05T15:03:13.987Z,13.89
2019-05-05T15:09:27.616Z,13.63
2019-05-05T15:15:33.466Z,13.18
2019-05-05T15:21:39.236Z,13.07
2019-05-05T15:27:45.178Z,12.64
2019-05-05T15:33:50.959Z,12.60
2019-05-05T15:39:56.746Z,12.28
2019-05-05T15:46:04.508Z,12.20
2019-05-05T15:52:10.609Z,12.21
2019-05-05T15:58:16.489Z,12.40
2019-05-05T16:04:23.631Z,12.66
2019-05-05T16:10:29.918Z,12.56
2019-05-05T16:16:43.700Z,12.58
2019-05-05T16:23:00.811Z,12.91
2019-05-05T16:29:06.731Z,12.93
2019-05-05T16:35:14.599Z,12.75
2019-05-05T16:41:20.448Z,12.66
2019-05-05T16:47:26.272Z,12.82
2019-05-05T16:53:36.062Z,12.75
2019-05-05T16:59:41.909Z,12.57
2019-05-05T17:05:47.709Z,12.33
2019-05-05T17:12:11.613Z,12.31
2019-05-05T17:18:35.446Z,12.42
2019-05-05T17:24:40.012Z,12.18
2019-05-05T17:30:45.871Z,11.87
2019-05-05T17:36:53.503Z,11.78
2019-05-05T17:43:25.128Z,11.77
2019-05-05T17:49:43.434Z,12.00
2019-05-05T17:55:49.202Z,12.16
2019-05-05T18:01:55.039Z,12.17
2019-05-05T18:08:01.113Z,12.21
2019-05-05T18:14:14.506Z,12.28
2019-05-05T18:20:20.497Z,11.96
2019-05-05T18:26:26.379Z,11.76
2019-05-05T18:32:34.231Z,11.40
2019-05-05T18:38:40.554Z,11.04
2019-05-05T18:44:48.890Z,10.85
2019-05-05T18:50:54.770Z,10.63
2019-05-05T18:57:00.829Z,10.56
2019-05-05T19:03:17.758Z,10.46
2019-05-05T19:09:19.660Z,10.48
2019-05-05T19:15:25.748Z,10.47
2019-05-05T19:21:35.989Z,10.42
2019-05-05T19:27:42.627Z,10.43
2019-05-05T19:33:48.552Z,10.33
2019-05-05T19:39:54.424Z,10.15
2019-05-05T19:46:00.342Z,10.07
2019-05-05T19:52:06.264Z,9.99
2019-05-05T19:58:13.911Z,9.84
2019-05-05T20:04:19.875Z,9.70
2019-05-05T20:10:25.906Z,9.65
2019-05-05T20:16:50.698Z,9.57
2019-05-05T20:22:56.656Z,9.54
2019-05-05T20:29:13.655Z,9.50
2019-05-05T20:35:33.834Z,9.34
2019-05-05T20:41:39.791Z,9.36
2019-05-05T20:47:45.577Z,9.45
2019-05-05T20:53:51.457Z,9.28
2019-05-05T20:59:57.455Z,9.09
2019-05-05T21:06:04.420Z,8.96
2019-05-05T21:12:10.423Z,8.84
2019-05-05T21:18:17.525Z,8.69
2019-05-05T21:24:23.937Z,8.61
2019-05-05T21:30:29.974Z,8.53
2019-05-05T21:36:35.886Z,8.41
2019-05-05T21:42:41.717Z,8.39
2019-05-05T21:48:47.566Z,8.33
2019-05-05T21:55:00.850Z,8.26
2019-05-05T22:01:15.186Z,8.22
2019-05-05T22:07:21.057Z,8.10
2019-05-05T22:13:27.309Z,8.15
2019-05-05T22:19:36.237Z,8.16
2019-05-05T22:25:43.781Z,8.22
2019-05-05T22:31:49.945Z,8.24
2019-05-05T22:37:55.891Z,8.24
2019-05-05T22:44:04.337Z,8.10
2019-05-05T22:50:09.597Z,7.81
2019-05-05T22:56:15.308Z,7.69
2019-05-05T23:02:24.463Z,7.60
2019-05-05T23:08:30.268Z,7.67
2019-05-05T23:14:36.020Z,7.48
2019-05-05T23:20:59.049Z,7.32
2019-05-05T23:27:06.481Z,7.11
2019-05-05T23:33:14.318Z,7.06
2019-05-05T23:39:20.130Z,7.05
2019-05-05T23:45:25.970Z,6.92
2019-05-05T23:51:32.624Z,6.66
2019-05-05T23:57:39.867Z,6.44
